Time;durP1;ratioP1;P1;durP2;ratioP2;P2;SDS_P1;SDS_P2;PMS_P1;PMS_P2;Temp;Humidity;BMP_temperature;BMP_pressure;BME280_temperature;BME280_humidity;BME280_pressure;Samples;Min_cycle;Max_cycle;Signal;HPM_P1;HPM_P2
2022/05/31 00:01:13;;;;;;;8.20;4.50;;;;;;;10.87;64.80;101286.13;5179005;28;20036;-78
2022/05/31 00:03:45;;;;;;;8.23;5.10;;;;;;;10.82;64.72;101282.91;5173128;28;20050;-79
2022/05/31 00:06:16;;;;;;;11.57;5.00;;;;;;;10.80;64.67;101288.25;5171148;28;20493;-79
2022/05/31 00:08:48;;;;;;;7.00;5.30;;;;;;;10.63;65.63;101279.50;5169606;28;20445;-76
2022/05/31 00:11:19;;;;;;;8.83;4.60;;;;;;;10.56;65.55;101262.41;5169048;28;20490;-77
2022/05/31 00:13:51;;;;;;;7.93;5.00;;;;;;;10.63;65.64;101258.53;5170175;28;20170;-77
2022/05/31 00:16:22;;;;;;;9.80;4.63;;;;;;;10.62;65.83;101269.09;5170585;28;20038;-77
2022/05/31 00:18:53;;;;;;;7.33;4.73;;;;;;;10.50;66.48;101268.84;5169578;28;20026;-77
2022/05/31 00:21:36;;;;;;;6.80;4.93;;;;;;;10.48;66.36;101267.22;5170553;28;20039;-77
2022/05/31 00:24:10;;;;;;;9.10;4.53;;;;;;;10.75;65.18;101279.78;5173203;28;20034;-77
2022/05/31 00:26:42;;;;;;;6.38;4.47;;;;;;;10.46;65.90;101264.66;5172572;28;20167;-77
2022/05/31 00:29:14;;;;;;;9.03;5.83;;;;;;;10.35;66.45;101265.19;5169976;28;20023;-77
2022/05/31 00:31:48;;;;;;;8.50;4.97;;;;;;;10.45;66.02;101275.22;5170284;28;20058;-77
2022/05/31 00:34:19;;;;;;;9.98;4.45;;;;;;;10.22;66.94;101277.25;5170977;28;20524;-77
2022/05/31 00:36:51;;;;;;;8.60;4.13;;;;;;;10.38;66.35;101270.31;5174419;28;20022;-77
2022/05/31 00:39:22;;;;;;;6.97;4.00;;;;;;;10.39;66.44;101269.38;5170520;28;20034;-77
2022/05/31 00:42:15;;;;;;;9.03;4.50;;;;;;;10.41;65.53;101259.66;5170054;28;20030;-77
2022/05/31 00:44:46;;;;;;;10.20;4.13;;;;;;;10.27;66.49;101272.63;5170426;28;20047;-76
2022/05/31 00:47:26;;;;;;;9.80;5.03;;;;;;;10.33;66.97;101276.69;5170857;28;20063;-77
2022/05/31 00:50:06;;;;;;;7.40;4.47;;;;;;;10.37;66.83;101279.06;5170576;28;20668;-76
2022/05/31 00:52:45;;;;;;;6.90;4.00;;;;;;;10.61;65.78;101277.91;5170195;28;20097;-76
2022/05/31 00:55:23;;;;;;;7.27;4.47;;;;;;;10.29;67.62;101281.25;5170396;28;20517;-75
2022/05/31 00:58:11;;;;;;;6.83;4.03;;;;;;;10.32;67.30;101275.84;5169299;28;20015;-76
2022/05/31 01:00:42;;;;;;;5.73;3.90;;;;;;;10.09;68.08;101256.09;5170446;28;20291;-76
2022/05/31 01:03:16;;;;;;;8.07;5.03;;;;;;;10.07;69.13;101273.66;5173184;28;20066;-76
2022/05/31 01:05:48;;;;;;;10.00;5.05;;;;;;;10.10;68.71;101273.50;5170613;28;20027;-75
2022/05/31 01:08:19;;;;;;;6.70;4.23;;;;;;;10.09;68.55;101275.25;5167784;28;20680;-76
2022/05/31 01:10:50;;;;;;;6.70;4.13;;;;;;;10.06;68.61;101275.41;5171161;28;20058;-76
2022/05/31 01:13:23;;;;;;;6.23;4.00;;;;;;;9.95;68.73;101273.34;5176985;22;20062;-76
2022/05/31 01:16:06;;;;;;;9.57;4.50;;;;;;;10.01;68.70;101266.94;5168112;28;20031;-76
2022/05/31 01:18:38;;;;;;;8.33;4.90;;;;;;;10.06;67.95;101267.56;5169938;28;20702;-75
2022/05/31 01:21:10;;;;;;;8.13;4.87;;;;;;;9.78;68.71;101261.97;5169660;28;20466;-75
2022/05/31 01:24:04;;;;;;;9.70;4.33;;;;;;;10.07;68.08;101269.25;5169267;28;20613;-75
2022/05/31 01:26:50;;;;;;;6.03;4.73;;;;;;;10.15;67.79;101263.63;5184887;28;20026;-75
2022/05/31 01:29:25;;;;;;;10.03;4.27;;;;;;;10.28;67.95;101254.22;5169259;28;20034;-76
2022/05/31 01:31:59;;;;;;;7.23;4.67;;;;;;;10.28;67.40;101250.78;5169504;28;20038;-76
2022/05/31 01:34:30;;;;;;;8.87;4.07;;;;;;;10.04;68.27;101254.56;5169350;28;20022;-75
2022/05/31 01:37:01;;;;;;;7.43;4.90;;;;;;;10.05;68.54;101258.03;5184302;28;20088;-75
2022/05/31 01:39:47;;;;;;;7.50;4.83;;;;;;;10.08;67.79;101250.00;5169409;28;20018;-76
2022/05/31 01:42:30;;;;;;;8.90;4.87;;;;;;;10.11;67.97;101252.47;5168674;28;20047;-76
2022/05/31 01:45:08;;;;;;;6.17;4.73;;;;;;;9.84;69.22;101249.50;5167846;28;20026;-76
2022/05/31 01:47:40;;;;;;;7.70;4.30;;;;;;;9.74;69.25;101255.16;5169589;28;20033;-76
2022/05/31 01:50:14;;;;;;;6.20;4.30;;;;;;;9.92;68.88;101257.78;5168041;28;20019;-75
2022/05/31 01:52:49;;;;;;;8.95;4.05;;;;;;;10.03;68.75;101254.63;5184752;28;20118;-76
2022/05/31 01:55:21;;;;;;;8.83;4.53;;;;;;;9.65;70.29;101255.66;5169105;28;20498;-76
2022/05/31 01:57:59;;;;;;;10.77;5.30;;;;;;;9.77;70.05;101259.41;5168385;28;20039;-76
2022/05/31 02:00:31;;;;;;;9.83;5.60;;;;;;;9.68;69.75;101253.72;5170477;28;20396;-76
2022/05/31 02:03:05;;;;;;;7.70;4.57;;;;;;;9.64;70.22;101259.16;5169389;28;20034;-77
2022/05/31 02:05:43;;;;;;;7.65;4.60;;;;;;;9.68;70.19;101253.72;5168831;28;20062;-77
2022/05/31 02:08:18;;;;;;;9.20;5.00;;;;;;;9.58;70.81;101252.50;5169279;28;20027;-76
2022/05/31 02:10:50;;;;;;;7.47;5.37;;;;;;;9.41;71.47;101248.91;5168078;28;20022;-77
2022/05/31 02:13:21;;;;;;;8.40;5.10;;;;;;;9.31;71.49;101247.66;5168293;28;20054;-76
2022/05/31 02:15:54;;;;;;;8.10;4.40;;;;;;;9.37;71.65;101241.31;5168973;28;20030;-77
2022/05/31 02:19:15;;;;;;;7.30;4.70;;;;;;;9.34;71.45;101247.50;5169110;28;20031;-77
2022/05/31 02:21:17;;;;;;;6.00;4.30;;;;;;;9.35;71.94;101246.59;5168670;28;20030;-75
2022/05/31 02:23:48;;;;;;;9.27;4.77;;;;;;;9.38;71.64;101243.84;5167909;28;20034;-76
2022/05/31 02:26:19;;;;;;;13.43;5.00;;;;;;;9.31;72.56;101237.22;5169161;28;20053;-75
2022/05/31 02:28:50;;;;;;;13.73;5.20;;;;;;;9.29;72.43;101236.44;5168681;28;20250;-77
2022/05/31 02:31:22;;;;;;;6.10;4.37;;;;;;;9.61;70.98;101234.03;5169157;28;20110;-75
2022/05/31 02:33:53;;;;;;;10.57;5.63;;;;;;;9.55;70.40;101239.53;5168888;28;20069;-75
2022/05/31 02:36:24;;;;;;;9.67;4.93;;;;;;;9.53;71.44;101236.19;5172817;28;20042;-76
2022/05/31 02:38:56;;;;;;;8.47;5.03;;;;;;;9.67;71.08;101227.63;5187554;28;20049;-76
2022/05/31 02:41:29;;;;;;;14.67;5.43;;;;;;;9.58;71.76;101234.19;5173073;28;20066;-76
2022/05/31 02:44:00;;;;;;;11.27;5.60;;;;;;;9.59;71.73;101229.78;5171737;28;20537;-76
2022/05/31 02:46:32;;;;;;;9.07;5.57;;;;;;;9.63;71.46;101231.34;5172649;28;20110;-76
2022/05/31 02:49:04;;;;;;;7.57;4.60;;;;;;;9.52;72.07;101230.09;5172343;28;20041;-76
2022/05/31 02:51:42;;;;;;;7.63;5.33;;;;;;;9.59;71.79;101230.63;5170975;28;20027;-77
2022/05/31 02:54:15;;;;;;;7.50;5.77;;;;;;;9.61;72.16;101234.03;5172504;28;20063;-76
2022/05/31 02:56:46;;;;;;;9.27;4.57;;;;;;;9.78;70.80;101233.19;5173167;28;20086;-77
2022/05/31 02:59:18;;;;;;;9.83;4.80;;;;;;;9.60;71.76;101221.03;5174307;28;20114;-76
2022/05/31 03:01:51;;;;;;;6.67;5.07;;;;;;;9.56;72.40;101225.56;5170899;28;20454;-76
2022/05/31 03:04:23;;;;;;;9.77;5.10;;;;;;;9.52;73.12;101226.63;5171902;28;20694;-72
2022/05/31 03:07:01;;;;;;;9.60;5.97;;;;;;;9.70;72.14;101231.88;5170811;28;20034;-76
2022/05/31 03:09:32;;;;;;;10.27;5.57;;;;;;;9.66;72.41;101215.47;5171875;28;20035;-76
2022/05/31 03:12:10;;;;;;;11.83;5.40;;;;;;;9.75;72.41;101229.88;5171066;28;20058;-75
2022/05/31 03:14:44;;;;;;;8.77;5.23;;;;;;;9.77;72.14;101234.09;5186926;28;20758;-75
2022/05/31 03:17:21;;;;;;;18.67;6.03;;;;;;;9.74;72.38;101225.56;5171866;28;20038;-77
2022/05/31 03:20:08;;;;;;;13.47;5.63;;;;;;;9.77;72.07;101228.03;5170802;28;20023;-75
2022/05/31 03:22:46;;;;;;;10.17;4.40;;;;;;;9.76;72.02;101219.31;5171956;28;20065;-75
2022/05/31 03:25:21;;;;;;;8.53;5.37;;;;;;;9.56;73.05;101215.94;5171974;28;20097;-75
2022/05/31 03:27:59;;;;;;;8.40;5.50;;;;;;;9.58;73.44;101223.72;5170518;28;20037;-76
2022/05/31 03:30:33;;;;;;;8.77;5.43;;;;;;;9.63;72.67;101218.25;5171968;28;20034;-76
2022/05/31 03:33:07;;;;;;;8.93;4.97;;;;;;;9.51;73.40;101217.09;5171569;28;20347;-75
2022/05/31 03:35:39;;;;;;;8.68;5.18;;;;;;;9.58;72.73;101223.72;5171563;28;20282;-76
2022/05/31 03:38:10;;;;;;;10.43;5.40;;;;;;;9.66;72.93;101211.09;5170075;28;20439;-76
2022/05/31 03:40:57;;;;;;;7.87;4.67;;;;;;;9.74;72.58;101213.31;5171287;28;20022;-77
2022/05/31 03:43:34;;;;;;;8.70;4.43;;;;;;;9.56;73.36;101215.09;5170703;28;20051;-77
2022/05/31 03:46:13;;;;;;;6.97;5.37;;;;;;;9.69;73.27;101217.94;5171087;28;20031;-77
2022/05/31 03:48:45;;;;;;;11.67;4.93;;;;;;;9.54;73.75;101219.56;5171237;28;20035;-76
2022/05/31 03:51:16;;;;;;;11.30;4.97;;;;;;;9.50;73.77;101218.84;5170769;28;20623;-78
2022/05/31 03:53:47;;;;;;;9.70;5.70;;;;;;;9.53;73.60;101200.41;5186215;28;20027;-77
2022/05/31 03:56:19;;;;;;;12.40;6.27;;;;;;;9.56;73.68;101207.25;5169354;28;20520;-76
2022/05/31 03:58:50;;;;;;;11.40;5.60;;;;;;;9.60;73.56;101218.41;5170463;28;20057;-76
2022/05/31 04:01:21;;;;;;;7.07;5.07;;;;;;;9.53;74.04;101208.25;5170565;28;20222;-76
2022/05/31 04:03:52;;;;;;;9.20;6.13;;;;;;;9.52;74.45;101216.16;5170339;28;20035;-77
2022/05/31 04:06:24;;;;;;;8.93;4.83;;;;;;;9.58;73.67;101213.25;5169632;28;20061;-76
2022/05/31 04:08:55;;;;;;;18.90;6.33;;;;;;;9.56;73.79;101210.69;5170329;28;20035;-76
2022/05/31 04:11:26;;;;;;;12.97;6.47;;;;;;;9.74;72.44;101208.09;5168937;28;20031;-76
2022/05/31 04:13:58;;;;;;;8.33;5.47;;;;;;;9.65;73.25;101213.81;5170255;28;20077;-76
2022/05/31 04:16:29;;;;;;;10.50;4.83;;;;;;;9.60;73.47;101211.41;5170424;28;20529;-77
2022/05/31 04:19:00;;;;;;;9.40;4.57;;;;;;;9.67;73.14;101210.16;5170381;28;20478;-75
2022/05/31 04:21:32;;;;;;;8.13;5.83;;;;;;;9.56;73.78;101212.50;5170488;28;20537;-76
2022/05/31 04:24:08;;;;;;;9.27;5.67;;;;;;;9.68;73.29;101217.13;5170714;28;20446;-76
2022/05/31 04:26:42;;;;;;;9.20;5.90;;;;;;;9.65;73.20;101200.72;5169566;28;20474;-76
2022/05/31 04:29:14;;;;;;;10.52;5.53;;;;;;;9.64;73.58;101204.25;5170762;28;20027;-76
2022/05/31 04:31:45;;;;;;;9.00;5.20;;;;;;;9.66;73.66;101205.03;5169922;28;20074;-76
2022/05/31 04:34:16;;;;;;;10.37;5.73;;;;;;;9.72;73.68;101216.94;5170313;28;20038;-76
2022/05/31 04:36:48;;;;;;;9.60;5.50;;;;;;;9.74;74.12;101207.25;5170285;28;20041;-76
2022/05/31 04:39:19;;;;;;;11.17;5.90;;;;;;;9.82;73.06;101207.72;5170562;28;20117;-76
2022/05/31 04:41:50;;;;;;;12.17;5.47;;;;;;;9.83;72.98;101216.41;5169467;28;20038;-75
2022/05/31 04:44:21;;;;;;;10.07;6.07;;;;;;;9.74;73.99;101207.25;5169779;28;20050;-76
2022/05/31 04:46:53;;;;;;;11.00;5.90;;;;;;;9.78;74.13;101208.78;5169715;28;20019;-76
2022/05/31 04:49:25;;;;;;;7.97;5.77;;;;;;;9.82;74.08;101210.34;5170203;28;20023;-76
2022/05/31 04:51:56;;;;;;;13.10;6.33;;;;;;;9.84;73.99;101203.25;5169942;28;20038;-77
2022/05/31 04:54:30;;;;;;;7.23;5.20;;;;;;;9.85;74.43;101210.16;5169696;28;20061;-77
2022/05/31 04:57:01;;;;;;;9.63;5.75;;;;;;;9.84;74.67;101199.78;5168431;28;20540;-77
2022/05/31 04:59:33;;;;;;;10.20;6.07;;;;;;;9.82;74.73;101204.25;5170366;28;20034;-77
2022/05/31 05:02:04;;;;;;;13.30;6.57;;;;;;;9.78;75.29;101201.78;5169249;28;20023;-77
2022/05/31 05:04:35;;;;;;;8.73;6.30;;;;;;;9.83;74.93;101200.72;5168931;28;20112;-76
2022/05/31 05:07:06;;;;;;;10.40;7.00;;;;;;;9.93;75.26;101197.53;5169297;28;20248;-76
2022/05/31 05:09:38;;;;;;;9.73;6.37;;;;;;;9.90;75.30;101202.06;5168618;28;20031;-76
2022/05/31 05:12:10;;;;;;;10.50;6.27;;;;;;;9.96;75.57;101195.69;5168791;28;20062;-76
2022/05/31 05:14:41;;;;;;;10.63;5.97;;;;;;;10.05;75.06;101190.00;5169303;28;20485;-76
2022/05/31 05:17:12;;;;;;;9.77;6.40;;;;;;;10.07;75.19;101197.75;5168256;28;20418;-77
2022/05/31 05:19:43;;;;;;;7.00;6.27;;;;;;;10.03;75.32;101202.31;5169264;28;20121;-77
2022/05/31 05:22:15;;;;;;;10.90;6.80;;;;;;;10.06;74.83;101191.66;5169560;28;20558;-77
2022/05/31 05:24:46;;;;;;;10.40;6.90;;;;;;;10.23;74.37;101192.53;5169440;28;20397;-77
2022/05/31 05:27:17;;;;;;;10.07;6.67;;;;;;;10.23;74.47;101197.78;5168676;28;20038;-77
2022/05/31 05:32:38;;;;;;;10.30;6.80;;;;;;;10.14;75.35;101199.97;5169475;28;20039;-76
2022/05/31 05:35:09;;;;;;;14.07;7.57;;;;;;;10.19;74.30;101183.19;5167926;28;20030;-76
2022/05/31 05:37:41;;;;;;;11.40;6.87;;;;;;;10.25;75.39;101202.03;5169579;28;20029;-76
2022/05/31 05:40:12;;;;;;;12.93;7.53;;;;;;;10.33;75.36;101204.25;5169528;28;20039;-77
2022/05/31 05:42:46;;;;;;;12.33;8.03;;;;;;;10.40;75.38;101195.13;5166484;28;20616;-77
2022/05/31 05:45:18;;;;;;;12.05;6.75;;;;;;;10.46;75.53;101195.72;5184117;28;20089;-77
2022/05/31 05:47:50;;;;;;;11.17;7.40;;;;;;;10.50;75.32;101194.66;5169623;28;20027;-79
2022/05/31 05:50:21;;;;;;;10.23;7.33;;;;;;;10.51;75.15;101197.19;5169361;28;20108;-79
2022/05/31 05:52:57;;;;;;;13.70;7.90;;;;;;;10.55;75.04;101202.25;5183223;28;20369;-78
2022/05/31 05:55:28;;;;;;;9.30;7.53;;;;;;;10.58;74.92;101202.09;5169958;28;20082;-79
2022/05/31 05:58:01;;;;;;;11.77;8.10;;;;;;;10.60;74.80;101200.22;5168440;28;20023;-79
2022/05/31 06:00:32;;;;;;;13.23;7.23;;;;;;;10.70;74.86;101196.19;5169288;28;20058;-79
2022/05/31 06:03:14;;;;;;;8.03;7.23;;;;;;;10.69;74.83;101196.28;5169046;28;20027;-80
2022/05/31 06:05:47;;;;;;;9.63;7.67;;;;;;;10.80;75.00;101204.41;5168650;28;20029;-79
2022/05/31 06:08:28;;;;;;;8.93;7.20;;;;;;;10.83;75.43;101201.59;5169042;28;20015;-79
2022/05/31 06:11:10;;;;;;;11.03;8.03;;;;;;;10.84;75.50;101198.03;5168218;28;20689;-77
2022/05/31 06:13:59;;;;;;;12.50;7.53;;;;;;;10.92;75.04;101184.53;5169097;28;20074;-80
2022/05/31 06:16:33;;;;;;;14.37;8.63;;;;;;;11.00;75.13;101189.31;5168390;28;20031;-80
2022/05/31 06:19:17;;;;;;;12.45;8.15;;;;;;;11.09;74.87;101187.97;5168135;28;20034;-80
2022/05/31 06:21:51;;;;;;;11.27;7.72;;;;;;;11.07;75.44;101182.81;5168965;28;20031;-80
2022/05/31 06:24:25;;;;;;;16.30;8.13;;;;;;;11.13;74.91;101186.88;5167858;28;20035;-80
2022/05/31 06:26:57;;;;;;;12.80;8.07;;;;;;;11.21;74.44;101199.53;5168243;28;20481;-80
2022/05/31 06:29:28;;;;;;;13.70;7.57;;;;;;;11.28;73.87;101198.25;5167975;28;20023;-80
2022/05/31 06:31:59;;;;;;;15.70;8.70;;;;;;;11.37;73.46;101200.34;5169996;28;20085;-80
2022/05/31 06:34:31;;;;;;;13.73;8.93;;;;;;;11.51;73.99;101190.84;5185718;28;20503;-80
2022/05/31 06:37:04;;;;;;;16.93;9.87;;;;;;;11.58;73.60;101194.78;5181214;28;20081;-80
2022/05/31 06:39:36;;;;;;;13.07;8.47;;;;;;;11.67;73.24;101197.81;5183914;28;20049;-80
2022/05/31 06:42:10;;;;;;;14.90;8.70;;;;;;;11.81;71.71;101200.47;5166142;28;22014;-80
2022/05/31 06:44:43;;;;;;;15.87;9.23;;;;;;;11.91;69.62;101197.28;5168552;28;20035;-80
2022/05/31 06:47:14;;;;;;;16.80;8.93;;;;;;;12.02;67.60;101205.38;5168291;28;20061;-80
2022/05/31 06:49:46;;;;;;;12.70;8.77;;;;;;;12.22;68.23;101200.69;5169041;28;20035;-80
2022/05/31 06:57:57;;;;;;;11.87;8.33;;;;;;;12.32;66.23;101195.75;5180917;28;20215;-80
2022/05/31 07:00:28;;;;;;;9.47;7.03;;;;;;;12.53;64.08;101193.53;5168815;28;20034;-80
2022/05/31 07:03:02;;;;;;;12.20;6.97;;;;;;;12.78;64.18;101194.63;5166646;28;20038;-79
2022/05/31 07:05:33;;;;;;;14.13;8.05;;;;;;;12.88;63.19;101178.28;5182746;28;20030;-80
2022/05/31 07:08:05;;;;;;;11.50;7.50;;;;;;;13.25;61.34;101193.41;5167699;28;20488;-80
2022/05/31 07:10:36;;;;;;;14.23;7.40;;;;;;;13.58;60.08;101193.97;5168238;28;20034;-80
2022/05/31 07:13:07;;;;;;;10.47;6.63;;;;;;;13.88;58.69;101191.03;5166189;28;20057;-80
2022/05/31 07:15:39;;;;;;;10.57;6.57;;;;;;;14.44;58.33;101191.59;5168372;28;20035;-80
2022/05/31 07:18:10;;;;;;;16.70;7.23;;;;;;;14.91;56.14;101190.94;5167939;28;20027;-80
2022/05/31 07:20:44;;;;;;;13.83;8.27;;;;;;;15.57;54.88;101189.63;5184428;28;20238;-80
2022/05/31 07:23:15;;;;;;;8.45;6.63;;;;;;;16.14;53.63;101186.25;5171576;28;20037;-80
2022/05/31 07:25:46;;;;;;;10.80;6.77;;;;;;;16.44;52.90;101184.78;5170798;28;20026;-79
2022/05/31 07:28:18;;;;;;;8.77;6.00;;;;;;;16.85;52.37;101178.06;5186344;28;20553;-79
2022/05/31 07:30:50;;;;;;;9.83;7.07;;;;;;;16.85;51.46;101183.38;5171250;28;20546;-79
2022/05/31 07:33:21;;;;;;;7.87;5.53;;;;;;;16.89;51.92;101185.66;5171597;28;20026;-79
2022/05/31 07:35:53;;;;;;;10.43;5.87;;;;;;;17.08;48.98;101185.94;5171015;28;20026;-80
2022/05/31 07:38:26;;;;;;;9.23;5.50;;;;;;;17.28;49.46;101184.31;5171377;28;20462;-81
2022/05/31 07:40:59;;;;;;;8.70;5.33;;;;;;;17.65;48.82;101181.22;5170495;28;20027;-80
2022/05/31 07:43:30;;;;;;;7.07;4.87;;;;;;;18.00;47.90;101183.63;5170670;28;20508;-81
2022/05/31 07:46:10;;;;;;;6.90;4.33;;;;;;;18.31;46.35;101174.84;5170916;28;20118;-80
2022/05/31 07:48:42;;;;;;;9.90;4.93;;;;;;;18.71;44.35;101181.06;5169412;28;20058;-80
2022/05/31 07:51:13;;;;;;;5.43;4.30;;;;;;;19.07;43.87;101168.09;5170406;28;20093;-80
2022/05/31 07:53:44;;;;;;;8.27;4.23;;;;;;;18.98;43.66;101171.59;5170769;28;20042;-80
2022/05/31 07:56:15;;;;;;;9.13;4.23;;;;;;;19.39;42.77;101170.63;5169793;28;20149;-81
2022/05/31 07:58:48;;;;;;;9.23;5.80;;;;;;;19.24;42.72;101171.03;5170728;28;20038;-79
2022/05/31 08:01:28;;;;;;;9.20;4.90;;;;;;;19.46;44.60;101158.44;5170498;28;20811;-79
2022/05/31 08:03:59;;;;;;;8.07;4.60;;;;;;;19.49;42.82;101159.97;5170566;28;20050;-80
2022/05/31 08:06:33;;;;;;;6.93;4.03;;;;;;;19.78;41.50;101167.00;5170336;28;20027;-79
2022/05/31 08:09:04;;;;;;;;;;;;;;;21.08;43.70;101165.31;5171053;28;20054;-81
2022/05/31 08:11:37;;;;;;;5.85;4.18;;;;;;;20.82;40.87;101172.22;5184488;28;20349;-77
2022/05/31 08:14:08;;;;;;;10.50;5.25;;;;;;;20.75;40.28;101158.66;5168544;28;20409;-80
2022/05/31 08:16:39;;;;;;;5.63;4.03;;;;;;;21.19;39.79;101159.72;5169891;28;20034;-79
2022/05/31 08:19:11;;;;;;;6.90;4.13;;;;;;;21.46;38.29;101149.94;5170203;28;20073;-80
2022/05/31 08:21:42;;;;;;;7.07;5.05;;;;;;;21.68;37.69;101157.56;5170330;28;20038;-78
2022/05/31 08:24:13;;;;;;;7.70;4.20;;;;;;;22.51;37.46;101151.72;5171733;28;20093;-80
2022/05/31 08:26:44;;;;;;;6.65;4.85;;;;;;;22.72;37.62;101149.44;5172200;28;20054;-82
2022/05/31 08:29:17;;;;;;;7.53;5.10;;;;;;;22.53;36.83;101150.56;5169103;28;20077;-82
2022/05/31 08:31:48;;;;;;;5.82;3.80;;;;;;;22.99;36.09;101156.47;5169666;28;20575;-80
2022/05/31 08:34:20;;;;;;;6.38;4.80;;;;;;;22.65;36.47;101159.13;5169354;28;20031;-80
2022/05/31 08:36:53;;;;;;;7.03;5.15;;;;;;;22.69;37.11;101155.09;5169957;28;20039;-81
2022/05/31 08:39:24;;;;;;;7.13;4.90;;;;;;;23.60;35.95;101155.25;5170094;28;20031;-85
2022/05/31 08:42:04;;;;;;;6.47;3.55;;;;;;;24.36;35.51;101160.13;5168620;28;20038;-85
2022/05/31 08:44:50;;;;;;;6.95;4.40;;;;;;;24.32;34.06;101148.09;5185554;28;20400;-81
2022/05/31 08:47:31;;;;;;;11.55;4.68;;;;;;;24.11;34.15;101156.69;5169619;28;20065;-79
2022/05/31 08:53:37;;;;;;;8.20;4.47;;;;;;;24.90;33.02;101152.22;5169161;28;20433;-76
2022/05/31 08:59:14;;;;;;;4.57;3.28;;;;;;;24.48;31.67;101151.69;5169616;28;20042;-77
2022/05/31 09:01:58;;;;;;;7.03;3.63;;;;;;;24.62;32.34;101150.94;5169638;28;20110;-76
2022/05/31 09:04:36;;;;;;;;;;;;;;;25.73;32.37;101146.06;5170374;28;20473;-72
2022/05/31 09:07:14;;;;;;;6.13;4.00;;;;;;;24.72;32.02;101149.84;5183798;28;19960;-73
2022/05/31 09:10:00;;;;;;;5.80;4.03;;;;;;;25.85;30.97;101140.25;5169411;28;20073;-73
2022/05/31 09:12:48;;;;;;;4.85;3.45;;;;;;;24.91;31.94;101148.50;5168334;28;20094;-73
2022/05/31 09:15:33;;;;;;;5.95;3.47;;;;;;;25.37;32.64;101144.94;5168898;28;20086;-73
2022/05/31 09:18:32;;;;;;;7.00;3.95;;;;;;;26.01;32.38;101149.13;5167670;28;20536;-73
2022/05/31 09:21:08;;;;;;;5.25;3.40;;;;;;;25.88;29.57;101139.03;5168850;28;20034;-74
2022/05/31 09:23:40;;;;;;;6.53;3.63;;;;;;;26.28;29.67;101150.25;5169830;28;20105;-72
2022/05/31 09:26:35;;;;;;;3.75;3.30;;;;;;;26.19;30.01;101152.22;5168178;28;20030;-80
2022/05/31 09:29:17;;;;;;;5.63;3.53;;;;;;;26.81;28.88;101142.94;5169076;28;20023;-79
2022/05/31 09:32:04;;;;;;;5.90;3.47;;;;;;;27.56;28.86;101154.22;5168115;28;20062;-75
2022/05/31 09:34:54;;;;;;;7.55;3.55;;;;;;;26.99;28.99;101147.81;5169551;28;20081;-78
2022/05/31 09:37:50;;;;;;;8.68;3.80;;;;;;;27.41;28.81;101152.47;5169132;28;20477;-78
2022/05/31 09:40:40;;;;;;;7.85;3.20;;;;;;;27.65;27.45;101147.63;5169951;28;20062;-79
2022/05/31 09:43:43;;;;;;;6.28;3.60;;;;;;;27.74;29.04;101146.47;5167535;28;20077;-79
2022/05/31 09:46:35;;;;;;;5.60;3.75;;;;;;;27.89;26.87;101154.41;5182169;28;20034;-77
2022/05/31 09:49:37;;;;;;;6.72;4.45;;;;;;;28.02;28.33;101142.03;5169181;28;20436;-82
2022/05/31 09:52:14;;;;;;;12.15;3.40;;;;;;;28.12;26.46;101133.59;5168765;28;20031;-76
2022/05/31 09:58:14;;;;;;;4.50;3.35;;;;;;;27.41;28.27;101133.66;5168102;28;20035;-77
2022/05/31 10:01:04;;;;;;;4.95;3.47;;;;;;;26.63;28.80;101140.69;5168787;28;20026;-78
2022/05/31 10:03:48;;;;;;;5.93;3.92;;;;;;;26.38;29.65;101141.91;5183694;28;20026;-78
2022/05/31 10:06:22;;;;;;;7.05;4.47;;;;;;;25.77;28.19;101133.13;5168006;28;20082;-78
2022/05/31 10:08:55;;;;;;;6.40;3.88;;;;;;;25.56;30.70;101137.38;5172329;28;20022;-79
2022/05/31 10:11:37;;;;;;;6.55;3.85;;;;;;;25.93;29.37;101133.94;5167652;28;20023;-71
2022/05/31 10:14:40;;;;;;;9.52;4.30;;;;;;;25.29;30.17;101125.44;5168820;28;20045;-73
2022/05/31 10:17:32;;;;;;;6.68;4.10;;;;;;;26.91;28.47;101134.53;5168067;28;20100;-73
2022/05/31 10:20:12;;;;;;;6.25;4.40;;;;;;;25.02;29.38;101125.84;5168774;28;20031;-73
2022/05/31 10:22:58;;;;;;;5.53;3.30;;;;;;;25.03;31.72;101127.50;5168043;28;20030;-75
2022/05/31 10:25:41;;;;;;;9.60;4.57;;;;;;;24.65;30.56;101134.50;5168053;28;20058;-75
2022/05/31 10:28:41;;;;;;;11.30;4.88;;;;;;;23.84;31.93;101135.59;5168391;28;20027;-74
2022/05/31 10:31:27;;;;;;;8.73;4.57;;;;;;;23.43;32.97;101139.22;5168398;28;20420;-74
2022/05/31 10:34:02;;;;;;;6.28;4.20;;;;;;;23.76;32.11;101124.91;5182967;28;20030;-75
2022/05/31 10:36:51;;;;;;;5.68;3.95;;;;;;;22.89;33.05;101122.75;5168721;28;20041;-73
2022/05/31 10:39:26;;;;;;;8.15;4.68;;;;;;;22.24;34.63;101128.63;5169576;28;20054;-72
2022/05/31 10:42:01;;;;;;;6.60;4.30;;;;;;;22.61;33.71;101128.38;5167100;28;20055;-73
2022/05/31 10:44:38;;;;;;;5.88;4.20;;;;;;;22.96;33.61;101126.41;5167712;28;20027;-74
2022/05/31 10:47:12;;;;;;;8.90;4.30;;;;;;;22.46;35.17;101121.00;5167748;28;20019;-73
2022/05/31 10:49:45;;;;;;;7.10;5.47;;;;;;;21.74;35.98;101120.44;5167529;28;20023;-71
2022/05/31 10:52:38;;;;;;;7.55;4.88;;;;;;;22.54;34.04;101130.88;5167633;28;20011;-74
2022/05/31 10:55:22;;;;;;;10.98;4.60;;;;;;;21.84;35.12;101130.16;5167767;28;20022;-73
2022/05/31 10:58:06;;;;;;;7.50;4.65;;;;;;;21.80;34.92;101128.81;5170257;28;20385;-72
2022/05/31 11:00:44;;;;;;;8.10;4.53;;;;;;;21.63;36.13;101124.22;5171881;28;20136;-70
2022/05/31 11:03:28;;;;;;;6.20;4.55;;;;;;;21.96;34.59;101130.69;5186243;28;20038;-70
2022/05/31 11:06:15;;;;;;;6.75;5.00;;;;;;;21.55;35.34;101120.66;5187048;28;20050;-70
2022/05/31 11:12:08;;;;;;;7.40;4.75;;;;;;;20.99;37.23;101129.78;5170363;28;20062;-70
2022/05/31 11:15:08;;;;;;;8.63;4.78;;;;;;;21.55;35.42;101129.50;5171578;28;20141;-70
2022/05/31 11:17:48;;;;;;;9.10;4.22;;;;;;;20.89;37.89;101127.19;5187929;28;20050;-71
2022/05/31 11:20:30;;;;;;;9.93;4.78;;;;;;;21.31;37.58;101125.69;5171594;28;20034;-70
2022/05/31 11:23:19;;;;;;;5.75;3.80;;;;;;;20.79;39.25;101132.56;5171000;28;20041;-71
2022/05/31 11:25:59;;;;;;;8.32;4.00;;;;;;;21.04;38.40;101124.84;5170384;28;20062;-68
2022/05/31 11:28:36;;;;;;;9.07;4.53;;;;;;;21.26;38.44;101139.47;5170937;28;20073;-70
2022/05/31 11:31:16;;;;;;;5.22;4.05;;;;;;;21.12;37.51;101137.38;5171537;28;20038;-70
2022/05/31 11:34:05;;;;;;;6.53;4.22;;;;;;;21.74;37.13;101136.44;5171488;28;20027;-70
2022/05/31 11:37:08;;;;;;;5.35;4.38;;;;;;;21.60;37.04;101135.19;5171785;28;20034;-70
2022/05/31 11:39:54;;;;;;;8.73;4.60;;;;;;;21.23;38.69;101139.78;5169044;28;20125;-70
2022/05/31 11:42:53;;;;;;;8.63;4.30;;;;;;;21.37;38.28;101141.06;5169588;28;20049;-69
2022/05/31 11:45:35;;;;;;;5.60;3.80;;;;;;;21.82;37.91;101143.66;5170631;28;20042;-71
2022/05/31 11:48:48;;;;;;;6.65;4.13;;;;;;;22.06;36.39;101133.25;5170872;28;20481;-71
2022/05/31 11:51:40;;;;;;;3.65;2.58;;;;;;;21.90;36.03;101134.88;5181229;28;20043;-71
2022/05/31 11:54:33;;;;;;;4.40;2.88;;;;;;;21.59;32.92;101132.69;5170726;28;20034;-71
2022/05/31 11:57:37;;;;;;;3.50;2.10;;;;;;;21.00;33.15;101140.28;5170233;28;20610;-70
2022/05/31 12:00:11;;;;;;;5.50;1.80;;;;;;;20.92;33.04;101138.38;5169023;28;20022;-73
2022/05/31 12:02:55;;;;;;;4.15;1.92;;;;;;;21.63;32.39;101145.53;5169246;28;20034;-70
2022/05/31 12:05:57;;;;;;;5.18;1.60;;;;;;;20.97;31.90;101139.75;5170139;28;20022;-71
2022/05/31 12:08:36;;;;;;;6.47;1.75;;;;;;;21.40;32.32;101134.56;5168809;28;20039;-70
2022/05/31 12:11:15;;;;;;;5.15;2.10;;;;;;;21.57;31.94;101137.34;5169601;28;20783;-70
2022/05/31 12:13:49;;;;;;;3.90;1.83;;;;;;;21.81;30.06;101130.47;5171499;28;20065;-70
2022/05/31 12:16:21;;;;;;;3.78;1.90;;;;;;;22.12;30.19;101133.44;5185591;28;20033;-71
2022/05/31 12:19:07;;;;;;;4.50;1.92;;;;;;;22.36;30.26;101128.31;5170021;28;20664;-70
2022/05/31 12:21:47;;;;;;;5.20;2.33;;;;;;;22.13;30.61;101126.28;5170747;28;20186;-71
2022/05/31 12:24:23;;;;;;;4.10;1.70;;;;;;;22.21;29.69;101126.31;5169369;28;20042;-70
2022/05/31 12:27:14;;;;;;;3.63;1.42;;;;;;;22.67;31.45;101130.41;5169093;28;20093;-71
2022/05/31 12:29:54;;;;;;;2.97;1.80;;;;;;;22.48;31.40;101113.66;5167670;28;20027;-70
2022/05/31 12:32:30;;;;;;;5.57;3.50;;;;;;;21.75;31.54;101122.09;5169942;28;20058;-72